Hauptseite
METAR-TAF:

METAR-TAF

Flughäfen :

Mönchengladbach, Deutschland

Verkehrslandeplatz Mönchengladbach

Breite: 51-13-49N, Länge: 006-30-16E, Höhe: 38 m

Beobachtung

Neuester Wetterbericht von vor 19 Minuten, um 11:20 UTC
Wind 13 kt aus Ost/Nordost
Temperatur 13°C
Luftfeuchtigkeit 38%
Luftdruck 1029 hPa
Sichtweite 10 km oder mehr
keine Wolken unter 1500 m und keine Kumulonimbus oder Gewitterwolken

METAR: EDLN 251120Z 06013KT CAVOK 13/M01 Q1029

Zeit: 12:39 (11:39 UTC)

Prognose

Neuester Wetterbericht von vor 39 Minuten, um 11:00 UTC
Gültige Prognose vom 25 um 12 UTC bis 25 um 21 UTC
Wind 12 kt aus Nordost
Sichtweite 10 km oder mehr
keine Wolken unter 1500 m und keine Kumulonimbus oder Gewitterwolken
Übergehend zu
vom 25 um 17 UTC bis 25 um 20 UTC
Wind 7 kt aus Nordost

TAF: EDLN 251100Z 2512/2521 04012KT CAVOK BECMG 2517/2520 04007KT

Wetterbeobachtungen und Prognosen von mehr als 4000 Flughäfen (METAR und TAF Bericht).

Die verfügbaren Stationen werden durch gelbe und rote Markierungen auf der Karte dargestellt.

Führen Sie die Maus auf sie, um den Namen der Station zu sehen.

Darauf klicken, um die Beobachtung von Wetterbeobachtungen und Prognosen zu sehen.

Um die Karte zu ändern : klicken Sie auf den grünen Tasten mit einem schwarzen Kreuz Zum Vergrößern, auf den grünen Button mit einem Gedankenstrich zu verkleinern, oder auf die grünen Pfeile für benachbarte Karten.


METAR-TAF: